sensor_id;sensor_type;location;lat;lon;timestamp;pressure;altitude;pressure_sealevel;temperature;humidity
56668;BME280;42542;48.360;10.958;2024-03-23T00:56:18;95532.88;;;8.96;80.38
56668;BME280;42542;48.360;10.958;2024-03-23T00:59:19;95529.88;;;8.99;80.05
56668;BME280;42542;48.360;10.958;2024-03-23T01:02:20;95525.38;;;8.99;79.97
56668;BME280;42542;48.360;10.958;2024-03-23T01:05:21;95520.69;;;9.01;79.86
56668;BME280;42542;48.360;10.958;2024-03-23T01:08:23;95517.41;;;8.99;79.88
56668;BME280;42542;48.360;10.958;2024-03-23T01:11:24;95514.72;;;8.99;79.46
56668;BME280;42542;48.360;10.958;2024-03-23T01:14:25;95512.22;;;8.98;79.83
56668;BME280;42542;48.360;10.958;2024-03-23T01:17:25;95513.38;;;8.95;80.49
56668;BME280;42542;48.360;10.958;2024-03-23T01:20:26;95510.88;;;8.94;80.54
56668;BME280;42542;48.360;10.958;2024-03-23T01:23:28;95510.41;;;8.90;80.58
56668;BME280;42542;48.360;10.958;2024-03-23T01:26:29;95512.75;;;8.85;81.31
56668;BME280;42542;48.360;10.958;2024-03-23T01:29:29;95511.75;;;8.78;81.29
56668;BME280;42542;48.360;10.958;2024-03-23T01:32:31;95501.41;;;8.75;81.98
56668;BME280;42542;48.360;10.958;2024-03-23T01:35:32;95503.75;;;8.70;82.27
56668;BME280;42542;48.360;10.958;2024-03-23T01:38:34;95498.59;;;8.60;81.82
56668;BME280;42542;48.360;10.958;2024-03-23T01:41:35;95494.78;;;8.55;83.11
56668;BME280;42542;48.360;10.958;2024-03-23T01:44:38;95493.63;;;8.49;82.43
56668;BME280;42542;48.360;10.958;2024-03-23T01:47:39;95491.44;;;8.45;83.20
56668;BME280;42542;48.360;10.958;2024-03-23T01:50:40;95486.63;;;8.40;83.58
56668;BME280;42542;48.360;10.958;2024-03-23T01:53:41;95473.31;;;8.32;83.30
56668;BME280;42542;48.360;10.958;2024-03-23T01:56:42;95466.94;;;8.25;84.01
56668;BME280;42542;48.360;10.958;2024-03-23T01:59:43;95464.28;;;8.25;83.92
56668;BME280;42542;48.360;10.958;2024-03-23T02:02:45;95452.63;;;8.18;84.76
56668;BME280;42542;48.360;10.958;2024-03-23T02:05:46;95449.47;;;8.14;85.12
56668;BME280;42542;48.360;10.958;2024-03-23T02:08:47;95446.31;;;8.11;85.46
56668;BME280;42542;48.360;10.958;2024-03-23T02:11:48;95449.28;;;8.08;85.47
56668;BME280;42542;48.360;10.958;2024-03-23T02:14:49;95449.63;;;8.05;85.51
56668;BME280;42542;48.360;10.958;2024-03-23T02:17:50;95447.13;;;8.03;85.54
56668;BME280;42542;48.360;10.958;2024-03-23T02:20:50;95440.16;;;8.02;86.03
56668;BME280;42542;48.360;10.958;2024-03-23T02:23:51;95434.16;;;8.00;86.08
56668;BME280;42542;48.360;10.958;2024-03-23T02:26:51;95430.00;;;7.98;86.26
56668;BME280;42542;48.360;10.958;2024-03-23T02:29:52;95428.34;;;7.97;86.54
56668;BME280;42542;48.360;10.958;2024-03-23T02:32:54;95420.66;;;7.94;86.60
56668;BME280;42542;48.360;10.958;2024-03-23T02:35:58;95424.53;;;7.91;87.23
56668;BME280;42542;48.360;10.958;2024-03-23T02:39:03;95417.69;;;7.89;87.47
56668;BME280;42542;48.360;10.958;2024-03-23T02:42:04;95407.56;;;7.84;87.43
56668;BME280;42542;48.360;10.958;2024-03-23T02:49:53;95410.53;;;7.81;87.06
56668;BME280;42542;48.360;10.958;2024-03-23T02:52:54;95416.19;;;7.78;87.36
56668;BME280;42542;48.360;10.958;2024-03-23T02:55:58;95404.69;;;7.69;88.29
56668;BME280;42542;48.360;10.958;2024-03-23T02:58:58;95410.50;;;7.73;88.31
56668;BME280;42542;48.360;10.958;2024-03-23T03:02:00;95391.56;;;7.68;87.70
56668;BME280;42542;48.360;10.958;2024-03-23T03:05:01;95394.38;;;7.66;88.41
56668;BME280;42542;48.360;10.958;2024-03-23T03:08:03;95386.56;;;7.65;88.33
56668;BME280;42542;48.360;10.958;2024-03-23T03:11:04;95379.41;;;7.65;88.94
56668;BME280;42542;48.360;10.958;2024-03-23T03:14:05;95376.91;;;7.64;89.23
56668;BME280;42542;48.360;10.958;2024-03-23T03:17:08;95371.28;;;7.67;89.21
56668;BME280;42542;48.360;10.958;2024-03-23T03:20:09;95366.78;;;7.67;89.21
56668;BME280;42542;48.360;10.958;2024-03-23T03:23:14;95365.94;;;7.67;89.37
56668;BME280;42542;48.360;10.958;2024-03-23T03:26:16;95362.16;;;7.69;89.50
56668;BME280;42542;48.360;10.958;2024-03-23T03:29:17;95354.66;;;7.73;89.82
56668;BME280;42542;48.360;10.958;2024-03-23T03:32:18;95341.88;;;7.76;89.27
56668;BME280;42542;48.360;10.958;2024-03-23T03:35:19;95342.84;;;7.83;89.29
56668;BME280;42542;48.360;10.958;2024-03-23T03:38:21;95333.38;;;7.89;89.31
56668;BME280;42542;48.360;10.958;2024-03-23T03:41:21;95330.19;;;7.94;89.22
56668;BME280;42542;48.360;10.958;2024-03-23T03:44:22;95335.03;;;7.98;89.30
56668;BME280;42542;48.360;10.958;2024-03-23T03:47:23;95321.38;;;8.01;89.10
56668;BME280;42542;48.360;10.958;2024-03-23T03:50:24;95321.88;;;8.05;89.10
56668;BME280;42542;48.360;10.958;2024-03-23T03:53:25;95316.88;;;8.10;88.85
56668;BME280;42542;48.360;10.958;2024-03-23T03:56:26;95318.22;;;8.14;89.21
56668;BME280;42542;48.360;10.958;2024-03-23T03:59:29;95313.88;;;8.21;89.00
56668;BME280;42542;48.360;10.958;2024-03-23T04:02:30;95299.91;;;8.27;88.47
56668;BME280;42542;48.360;10.958;2024-03-23T04:05:31;95302.22;;;8.38;88.29
56668;BME280;42542;48.360;10.958;2024-03-23T04:08:31;95289.03;;;8.45;88.51
56668;BME280;42542;48.360;10.958;2024-03-23T04:11:33;95281.84;;;8.53;87.93
56668;BME280;42542;48.360;10.958;2024-03-23T04:14:34;95282.16;;;8.58;88.00
56668;BME280;42542;48.360;10.958;2024-03-23T04:17:35;95268.97;;;8.65;88.27
56668;BME280;42542;48.360;10.958;2024-03-23T04:20:36;95256.16;;;8.69;88.23
56668;BME280;42542;48.360;10.958;2024-03-23T04:23:37;95276.09;;;8.73;88.08
56668;BME280;42542;48.360;10.958;2024-03-23T04:26:42;95265.78;;;8.78;86.94
56668;BME280;42542;48.360;10.958;2024-03-23T04:29:48;95264.41;;;8.82;87.09
56668;BME280;42542;48.360;10.958;2024-03-23T04:32:49;95265.91;;;8.84;86.83
56668;BME280;42542;48.360;10.958;2024-03-23T04:35:50;95257.22;;;8.90;87.11
56668;BME280;42542;48.360;10.958;2024-03-23T04:38:51;95258.50;;;8.94;87.15
56668;BME280;42542;48.360;10.958;2024-03-23T04:41:53;95244.19;;;8.95;86.75
56668;BME280;42542;48.360;10.958;2024-03-23T04:44:54;95255.69;;;8.96;87.20
56668;BME280;42542;48.360;10.958;2024-03-23T04:47:55;95240.69;;;8.95;86.18
56668;BME280;42542;48.360;10.958;2024-03-23T04:50:57;95262.66;;;8.97;86.45
56668;BME280;42542;48.360;10.958;2024-03-23T04:53:58;95259.66;;;9.00;86.11
56668;BME280;42542;48.360;10.958;2024-03-23T04:57:00;95249.63;;;9.02;86.43
56668;BME280;42542;48.360;10.958;2024-03-23T05:00:01;95240.31;;;9.06;85.90
56668;BME280;42542;48.360;10.958;2024-03-23T05:03:02;95228.63;;;9.07;85.74
56668;BME280;42542;48.360;10.958;2024-03-23T05:06:04;95244.75;;;9.14;86.03
56668;BME280;42542;48.360;10.958;2024-03-23T05:09:05;95242.53;;;9.17;85.60
56668;BME280;42542;48.360;10.958;2024-03-23T05:12:07;95240.38;;;9.21;85.44
56668;BME280;42542;48.360;10.958;2024-03-23T05:15:07;95230.00;;;9.26;85.50
56668;BME280;42542;48.360;10.958;2024-03-23T05:18:08;95228.00;;;9.28;85.21
56668;BME280;42542;48.360;10.958;2024-03-23T05:21:09;95232.31;;;9.29;84.48
56668;BME280;42542;48.360;10.958;2024-03-23T05:24:10;95215.00;;;9.25;84.70
56668;BME280;42542;48.360;10.958;2024-03-23T05:27:10;95211.16;;;9.27;84.87
56668;BME280;42542;48.360;10.958;2024-03-23T05:30:11;95203.16;;;9.27;85.14
56668;BME280;42542;48.360;10.958;2024-03-23T05:33:12;95178.03;;;9.22;84.76
56668;BME280;42542;48.360;10.958;2024-03-23T05:36:13;95166.34;;;9.23;84.71
56668;BME280;42542;48.360;10.958;2024-03-23T05:39:15;95168.66;;;9.26;84.86
56668;BME280;42542;48.360;10.958;2024-03-23T05:42:18;95162.31;;;9.27;84.91
56668;BME280;42542;48.360;10.958;2024-03-23T05:45:19;95166.28;;;9.31;85.13
56668;BME280;42542;48.360;10.958;2024-03-23T05:48:20;95166.75;;;9.34;84.73
56668;BME280;42542;48.360;10.958;2024-03-23T05:51:20;95158.22;;;9.39;83.77
56668;BME280;42542;48.360;10.958;2024-03-23T05:54:21;95149.03;;;9.42;83.62
56668;BME280;42542;48.360;10.958;2024-03-23T05:57:22;95144.44;;;9.50;83.84
56668;BME280;42542;48.360;10.958;2024-03-23T06:00:23;95132.56;;;9.53;82.86
56668;BME280;42542;48.360;10.958;2024-03-23T06:03:27;95123.47;;;9.62;82.33
56668;BME280;42542;48.360;10.958;2024-03-23T06:06:28;95129.56;;;9.70;82.85
56668;BME280;42542;48.360;10.958;2024-03-23T06:09:30;95123.50;;;9.76;82.49
56668;BME280;42542;48.360;10.958;2024-03-23T06:12:32;95115.50;;;9.76;82.96
56668;BME280;42542;48.360;10.958;2024-03-23T06:15:33;95106.38;;;9.86;83.38
56668;BME280;42542;48.360;10.958;2024-03-23T06:18:39;95109.31;;;9.91;83.03
56668;BME280;42542;48.360;10.958;2024-03-23T06:21:43;95099.81;;;10.03;81.91
56668;BME280;42542;48.360;10.958;2024-03-23T06:24:45;95092.66;;;10.18;81.63
56668;BME280;42542;48.360;10.958;2024-03-23T06:27:46;95092.38;;;10.28;81.81
56668;BME280;42542;48.360;10.958;2024-03-23T06:30:47;95090.69;;;10.41;81.09
56668;BME280;42542;48.360;10.958;2024-03-23T06:33:47;95094.31;;;10.55;81.11
56668;BME280;42542;48.360;10.958;2024-03-23T06:36:48;95088.22;;;10.61;80.56
56668;BME280;42542;48.360;10.958;2024-03-23T06:39:49;95091.41;;;10.71;80.94
56668;BME280;42542;48.360;10.958;2024-03-23T06:42:50;95093.56;;;10.82;80.57
56668;BME280;42542;48.360;10.958;2024-03-23T06:45:54;95098.38;;;10.87;80.63
56668;BME280;42542;48.360;10.958;2024-03-23T06:48:56;95088.75;;;10.92;80.52
56668;BME280;42542;48.360;10.958;2024-03-23T06:51:57;95097.84;;;10.98;81.50
56668;BME280;42542;48.360;10.958;2024-03-23T06:54:58;95110.25;;;11.06;81.54
56668;BME280;42542;48.360;10.958;2024-03-23T06:57:59;95113.63;;;11.14;81.55
56668;BME280;42542;48.360;10.958;2024-03-23T07:01:00;95104.44;;;11.23;80.93
56668;BME280;42542;48.360;10.958;2024-03-23T07:04:01;95110.88;;;11.29;81.55
56668;BME280;42542;48.360;10.958;2024-03-23T07:07:03;95118.13;;;11.35;82.05
56668;BME280;42542;48.360;10.958;2024-03-23T07:10:05;95114.84;;;11.40;81.97
56668;BME280;42542;48.360;10.958;2024-03-23T07:13:06;95116.31;;;11.42;81.59
56668;BME280;42542;48.360;10.958;2024-03-23T07:16:07;95138.81;;;11.48;82.45
56668;BME280;42542;48.360;10.958;2024-03-23T07:19:08;95150.97;;;11.50;84.65
56668;BME280;42542;48.360;10.958;2024-03-23T07:22:09;95151.09;;;11.42;86.88
56668;BME280;42542;48.360;10.958;2024-03-23T07:25:10;95165.31;;;11.43;89.34
56668;BME280;42542;48.360;10.958;2024-03-23T07:28:11;95174.31;;;11.35;90.41
56668;BME280;42542;48.360;10.958;2024-03-23T07:31:13;95280.09;;;11.16;88.62
56668;BME280;42542;48.360;10.958;2024-03-23T07:34:15;95261.16;;;10.82;90.64
56668;BME280;42542;48.360;10.958;2024-03-23T07:37:16;95259.16;;;10.54;92.05
56668;BME280;42542;48.360;10.958;2024-03-23T07:40:17;95269.91;;;10.17;93.28
56668;BME280;42542;48.360;10.958;2024-03-23T07:43:18;95289.38;;;10.03;94.75
56668;BME280;42542;48.360;10.958;2024-03-23T07:46:21;95299.47;;;9.78;96.77
56668;BME280;42542;48.360;10.958;2024-03-23T07:49:22;95302.69;;;9.65;98.03
56668;BME280;42542;48.360;10.958;2024-03-23T07:52:23;95297.97;;;9.53;99.68
56668;BME280;42542;48.360;10.958;2024-03-23T07:55:25;95312.84;;;9.47;100.00
56668;BME280;42542;48.360;10.958;2024-03-23T07:58:26;95334.91;;;9.41;100.00
56668;BME280;42542;48.360;10.958;2024-03-23T08:01:27;95344.63;;;9.34;100.00
56668;BME280;42542;48.360;10.958;2024-03-23T08:04:27;95345.66;;;9.25;100.00
56668;BME280;42542;48.360;10.958;2024-03-23T08:07:28;95355.72;;;9.15;100.00
56668;BME280;42542;48.360;10.958;2024-03-23T08:10:29;95353.56;;;9.10;100.00
56668;BME280;42542;48.360;10.958;2024-03-23T08:13:30;95353.56;;;9.10;100.00
56668;BME280;42542;48.360;10.958;2024-03-23T08:16:31;95355.56;;;9.08;100.00
56668;BME280;42542;48.360;10.958;2024-03-23T08:19:34;95363.63;;;9.00;100.00
56668;BME280;42542;48.360;10.958;2024-03-23T08:22:35;95362.44;;;9.02;100.00
56668;BME280;42542;48.360;10.958;2024-03-23T08:25:36;95358.09;;;9.01;100.00
56668;BME280;42542;48.360;10.958;2024-03-23T08:28:37;95367.09;;;9.00;100.00
56668;BME280;42542;48.360;10.958;2024-03-23T08:31:39;95369.13;;;8.98;100.00
56668;BME280;42542;48.360;10.958;2024-03-23T08:34:39;95383.44;;;8.97;100.00
56668;BME280;42542;48.360;10.958;2024-03-23T08:37:40;95380.78;;;8.97;100.00
56668;BME280;42542;48.360;10.958;2024-03-23T08:40:41;95371.28;;;8.95;100.00
56668;BME280;42542;48.360;10.958;2024-03-23T08:43:42;95379.78;;;8.98;100.00
56668;BME280;42542;48.360;10.958;2024-03-23T08:46:43;95387.94;;;8.97;100.00
56668;BME280;42542;48.360;10.958;2024-03-23T08:49:44;95397.25;;;9.01;100.00
56668;BME280;42542;48.360;10.958;2024-03-23T08:52:45;95392.59;;;8.95;100.00
56668;BME280;42542;48.360;10.958;2024-03-23T08:55:53;95409.78;;;8.92;100.00
56668;BME280;42542;48.360;10.958;2024-03-23T08:58:54;95417.66;;;8.86;100.00
56668;BME280;42542;48.360;10.958;2024-03-23T09:01:56;95423.81;;;8.78;100.00
56668;BME280;42542;48.360;10.958;2024-03-23T09:04:56;95440.13;;;8.75;100.00
56668;BME280;42542;48.360;10.958;2024-03-23T09:08:06;95446.63;;;8.73;100.00
56668;BME280;42542;48.360;10.958;2024-03-23T09:11:08;95439.47;;;8.73;100.00
56668;BME280;42542;48.360;10.958;2024-03-23T09:14:09;95461.44;;;8.75;100.00
56668;BME280;42542;48.360;10.958;2024-03-23T09:17:10;95464.13;;;8.67;100.00
56668;BME280;42542;48.360;10.958;2024-03-23T09:20:11;95455.97;;;8.60;99.40
56668;BME280;42542;48.360;10.958;2024-03-23T09:23:11;95467.81;;;8.50;97.14
56668;BME280;42542;48.360;10.958;2024-03-23T09:26:13;95480.31;;;8.49;98.29
56668;BME280;42542;48.360;10.958;2024-03-23T09:29:14;95477.13;;;8.46;97.48
56668;BME280;42542;48.360;10.958;2024-03-23T09:32:16;95480.78;;;8.45;97.37
56668;BME280;42542;48.360;10.958;2024-03-23T09:35:16;95491.59;;;8.43;96.98
56668;BME280;42542;48.360;10.958;2024-03-23T09:38:18;95481.13;;;8.42;96.40
56668;BME280;42542;48.360;10.958;2024-03-23T09:41:19;95486.63;;;8.40;96.83
56668;BME280;42542;48.360;10.958;2024-03-23T09:44:20;95496.94;;;8.43;96.87
56668;BME280;42542;48.360;10.958;2024-03-23T09:47:21;95501.44;;;8.43;96.82
56668;BME280;42542;48.360;10.958;2024-03-23T09:50:23;95493.47;;;8.43;97.22
56668;BME280;42542;48.360;10.958;2024-03-23T09:53:24;95508.94;;;8.47;97.44
56668;BME280;42542;48.360;10.958;2024-03-23T09:56:25;95517.75;;;8.56;97.40
56668;BME280;42542;48.360;10.958;2024-03-23T09:59:26;95497.75;;;8.52;96.52
56668;BME280;42542;48.360;10.958;2024-03-23T10:02:27;95517.94;;;8.63;96.72
56668;BME280;42542;48.360;10.958;2024-03-23T10:05:29;95527.75;;;8.62;95.25
56668;BME280;42542;48.360;10.958;2024-03-23T10:08:33;95544.88;;;8.59;95.19
56668;BME280;42542;48.360;10.958;2024-03-23T10:11:36;95529.41;;;8.47;96.51
56668;BME280;42542;48.360;10.958;2024-03-23T10:14:36;95539.88;;;8.40;97.31
56668;BME280;42542;48.360;10.958;2024-03-23T10:17:37;95560.28;;;8.23;93.07
56668;BME280;42542;48.360;10.958;2024-03-23T10:20:38;95539.78;;;8.08;87.43
56668;BME280;42542;48.360;10.958;2024-03-23T10:23:41;95556.94;;;8.05;86.19
56668;BME280;42542;48.360;10.958;2024-03-23T10:26:42;95557.09;;;8.04;85.40
56668;BME280;42542;48.360;10.958;2024-03-23T10:29:43;95551.09;;;8.02;83.07
56668;BME280;42542;48.360;10.958;2024-03-23T10:32:45;95550.78;;;8.05;84.55
56668;BME280;42542;48.360;10.958;2024-03-23T10:35:47;95554.75;;;8.09;84.67
56668;BME280;42542;48.360;10.958;2024-03-23T10:38:50;95544.81;;;8.11;84.27
56668;BME280;42542;48.360;10.958;2024-03-23T10:41:53;95546.31;;;8.13;84.38
56668;BME280;42542;48.360;10.958;2024-03-23T10:44:54;95544.13;;;8.17;82.84
56668;BME280;42542;48.360;10.958;2024-03-23T10:47:57;95543.97;;;8.18;83.08
56668;BME280;42542;48.360;10.958;2024-03-23T10:50:57;95572.81;;;8.31;84.13
56668;BME280;42542;48.360;10.958;2024-03-23T10:54:00;95582.47;;;8.32;81.97
56668;BME280;42542;48.360;10.958;2024-03-23T10:57:13;95592.97;;;8.34;81.57
56668;BME280;42542;48.360;10.958;2024-03-23T11:00:16;95627.75;;;8.32;80.31
56668;BME280;42542;48.360;10.958;2024-03-23T11:03:34;95621.72;;;8.30;75.96
56668;BME280;42542;48.360;10.958;2024-03-23T11:06:38;95613.44;;;8.33;76.29
56668;BME280;42542;48.360;10.958;2024-03-23T11:09:41;95615.94;;;8.35;73.73
56668;BME280;42542;48.360;10.958;2024-03-23T11:12:46;95603.28;;;8.37;71.24
56668;BME280;42542;48.360;10.958;2024-03-23T11:15:46;95609.13;;;8.40;72.16
56668;BME280;42542;48.360;10.958;2024-03-23T11:18:47;95618.81;;;8.49;72.74
56668;BME280;42542;48.360;10.958;2024-03-23T11:21:55;95614.66;;;8.55;70.66
56668;BME280;42542;48.360;10.958;2024-03-23T11:24:56;95615.31;;;8.65;71.34
56668;BME280;42542;48.360;10.958;2024-03-23T11:28:09;95632.97;;;8.74;71.43
56668;BME280;42542;48.360;10.958;2024-03-23T11:31:10;95633.81;;;8.75;70.08
56668;BME280;42542;48.360;10.958;2024-03-23T11:34:11;95636.31;;;8.68;66.29
56668;BME280;42542;48.360;10.958;2024-03-23T11:37:12;95630.97;;;8.60;65.56
56668;BME280;42542;48.360;10.958;2024-03-23T11:40:18;95609.31;;;8.55;66.23
56668;BME280;42542;48.360;10.958;2024-03-23T11:43:20;95633.28;;;8.47;64.57
56668;BME280;42542;48.360;10.958;2024-03-23T11:46:23;95635.59;;;8.42;65.46
56668;BME280;42542;48.360;10.958;2024-03-23T11:49:25;95634.78;;;8.41;65.60
56668;BME280;42542;48.360;10.958;2024-03-23T11:52:26;95624.75;;;8.43;66.13
56668;BME280;42542;48.360;10.958;2024-03-23T11:55:27;95617.59;;;8.44;64.76
56668;BME280;42542;48.360;10.958;2024-03-23T11:58:28;95599.81;;;8.44;65.35
56668;BME280;42542;48.360;10.958;2024-03-23T12:01:28;95585.00;;;8.42;64.54
56668;BME280;42542;48.360;10.958;2024-03-23T12:04:29;95617.59;;;8.44;65.77
56668;BME280;42542;48.360;10.958;2024-03-23T12:07:30;95616.47;;;8.54;66.23
56668;BME280;42542;48.360;10.958;2024-03-23T12:10:30;95605.50;;;8.66;64.98
56668;BME280;42542;48.360;10.958;2024-03-23T12:13:31;95590.69;;;8.71;63.82
56668;BME280;42542;48.360;10.958;2024-03-23T12:16:33;95596.03;;;8.71;63.68
56668;BME280;42542;48.360;10.958;2024-03-23T12:19:34;95590.34;;;8.74;64.59
56668;BME280;42542;48.360;10.958;2024-03-23T12:22:35;95595.19;;;8.71;62.73
56668;BME280;42542;48.360;10.958;2024-03-23T12:25:36;95598.16;;;8.68;62.97
56668;BME280;42542;48.360;10.958;2024-03-23T12:28:37;95594.34;;;8.70;63.73
56668;BME280;42542;48.360;10.958;2024-03-23T12:31:38;95584.19;;;8.74;64.04
56668;BME280;42542;48.360;10.958;2024-03-23T12:34:40;95586.69;;;8.75;62.51
56668;BME280;42542;48.360;10.958;2024-03-23T12:37:43;95586.53;;;8.77;62.09
56668;BME280;42542;48.360;10.958;2024-03-23T12:40:51;95583.34;;;8.89;63.15
56668;BME280;42542;48.360;10.958;2024-03-23T12:43:52;95579.84;;;8.97;61.26
56668;BME280;42542;48.360;10.958;2024-03-23T12:46:53;95567.00;;;9.00;61.32
56668;BME280;42542;48.360;10.958;2024-03-23T12:49:54;95559.19;;;9.07;62.50
56668;BME280;42542;48.360;10.958;2024-03-23T12:52:56;95560.34;;;9.13;61.26
56668;BME280;42542;48.360;10.958;2024-03-23T12:55:56;95570.03;;;9.14;59.34
56668;BME280;42542;48.360;10.958;2024-03-23T12:58:58;95577.50;;;9.10;58.25
56668;BME280;42542;48.360;10.958;2024-03-23T13:01:59;95591.50;;;9.04;57.67
56668;BME280;42542;48.360;10.958;2024-03-23T13:05:00;95607.66;;;9.02;60.30
56668;BME280;42542;48.360;10.958;2024-03-23T13:08:01;95608.84;;;8.84;62.91
56668;BME280;42542;48.360;10.958;2024-03-23T13:11:04;95604.00;;;8.63;65.28
56668;BME280;42542;48.360;10.958;2024-03-23T13:14:04;95622.09;;;8.43;67.58
56668;BME280;42542;48.360;10.958;2024-03-23T13:17:07;95620.31;;;8.10;69.65
56668;BME280;42542;48.360;10.958;2024-03-23T13:20:08;95632.31;;;8.06;71.96
56668;BME280;42542;48.360;10.958;2024-03-23T13:23:14;95632.72;;;7.85;70.66
56668;BME280;42542;48.360;10.958;2024-03-23T13:26:15;95631.78;;;7.68;69.29
56668;BME280;42542;48.360;10.958;2024-03-23T13:29:17;95623.63;;;7.62;65.93
56668;BME280;42542;48.360;10.958;2024-03-23T13:32:18;95619.78;;;7.56;62.98
56668;BME280;42542;48.360;10.958;2024-03-23T13:35:19;95629.13;;;7.34;59.88
56668;BME280;42542;48.360;10.958;2024-03-23T13:38:20;95606.94;;;7.26;59.02
56668;BME280;42542;48.360;10.958;2024-03-23T13:41:21;95620.88;;;7.20;59.63
56668;BME280;42542;48.360;10.958;2024-03-23T13:44:22;95605.22;;;7.17;61.87
56668;BME280;42542;48.360;10.958;2024-03-23T13:47:23;95612.16;;;7.10;60.75
56668;BME280;42542;48.360;10.958;2024-03-23T13:50:24;95615.78;;;7.09;61.10
56668;BME280;42542;48.360;10.958;2024-03-23T13:53:26;95617.47;;;7.10;62.46
56668;BME280;42542;48.360;10.958;2024-03-23T13:56:27;95624.97;;;7.14;63.89
56668;BME280;42542;48.360;10.958;2024-03-23T13:59:29;95618.00;;;7.13;63.30
56668;BME280;42542;48.360;10.958;2024-03-23T14:02:30;95615.16;;;7.15;63.14
56668;BME280;42542;48.360;10.958;2024-03-23T14:05:31;95621.16;;;7.17;62.83
56668;BME280;42542;48.360;10.958;2024-03-23T14:08:31;95605.00;;;7.10;62.66
56668;BME280;42542;48.360;10.958;2024-03-23T14:11:37;95602.84;;;7.05;62.98
56668;BME280;42542;48.360;10.958;2024-03-23T14:14:38;95613.06;;;7.00;63.72
56668;BME280;42542;48.360;10.958;2024-03-23T14:17:39;95604.94;;;7.02;64.35
56668;BME280;42542;48.360;10.958;2024-03-23T14:20:40;95603.97;;;7.03;63.28
56668;BME280;42542;48.360;10.958;2024-03-23T14:23:42;95600.19;;;7.05;63.10
56668;BME280;42542;48.360;10.958;2024-03-23T14:26:42;95609.00;;;7.14;64.17
56668;BME280;42542;48.360;10.958;2024-03-23T14:29:46;95601.94;;;7.23;62.83
56668;BME280;42542;48.360;10.958;2024-03-23T14:32:48;95588.41;;;7.34;63.35
56668;BME280;42542;48.360;10.958;2024-03-23T14:35:55;95589.16;;;7.52;63.26
56668;BME280;42542;48.360;10.958;2024-03-23T14:38:57;95579.59;;;7.67;63.28
56668;BME280;42542;48.360;10.958;2024-03-23T14:42:00;95575.44;;;7.73;62.67
56668;BME280;42542;48.360;10.958;2024-03-23T14:45:01;95567.56;;;7.97;63.50
56668;BME280;42542;48.360;10.958;2024-03-23T14:48:03;95569.00;;;8.34;62.24
56668;BME280;42542;48.360;10.958;2024-03-23T14:51:09;95585.19;;;8.56;58.84
56668;BME280;42542;48.360;10.958;2024-03-23T14:54:10;95582.03;;;8.61;57.69
56668;BME280;42542;48.360;10.958;2024-03-23T14:57:11;95585.00;;;8.74;57.28
56668;BME280;42542;48.360;10.958;2024-03-23T15:00:13;95569.19;;;8.97;57.13
56668;BME280;42542;48.360;10.958;2024-03-23T15:03:14;95573.69;;;9.05;55.95
56668;BME280;42542;48.360;10.958;2024-03-23T15:06:16;95564.69;;;9.06;55.57
56668;BME280;42542;48.360;10.958;2024-03-23T15:09:17;95569.19;;;8.97;55.60
56668;BME280;42542;48.360;10.958;2024-03-23T15:12:19;95591.03;;;8.92;55.00
56668;BME280;42542;48.360;10.958;2024-03-23T15:15:19;95584.34;;;8.88;55.43
56668;BME280;42542;48.360;10.958;2024-03-23T15:18:20;95586.03;;;8.81;55.23
56668;BME280;42542;48.360;10.958;2024-03-23T15:21:28;95602.84;;;8.90;55.49
56668;BME280;42542;48.360;10.958;2024-03-23T15:24:29;95601.19;;;9.05;55.66
56668;BME280;42542;48.360;10.958;2024-03-23T15:27:30;95609.13;;;9.29;55.98
56668;BME280;42542;48.360;10.958;2024-03-23T15:30:30;95603.81;;;9.29;54.39
56668;BME280;42542;48.360;10.958;2024-03-23T15:33:31;95606.31;;;9.31;56.00
56668;BME280;42542;48.360;10.958;2024-03-23T15:36:32;95605.16;;;9.25;55.71
56668;BME280;42542;48.360;10.958;2024-03-23T15:39:33;95600.81;;;9.16;55.62
56668;BME280;42542;48.360;10.958;2024-03-23T15:42:34;95599.00;;;9.09;56.06
56668;BME280;42542;48.360;10.958;2024-03-23T15:45:35;95602.03;;;8.97;55.85
56668;BME280;42542;48.360;10.958;2024-03-23T15:48:36;95597.53;;;8.90;56.42
56668;BME280;42542;48.360;10.958;2024-03-23T15:51:37;95594.16;;;8.80;57.97
56668;BME280;42542;48.360;10.958;2024-03-23T15:54:43;95577.69;;;8.68;56.85
56668;BME280;42542;48.360;10.958;2024-03-23T15:57:43;95576.69;;;8.61;57.30
56668;BME280;42542;48.360;10.958;2024-03-23T16:00:45;95571.69;;;8.50;56.68
56668;BME280;42542;48.360;10.958;2024-03-23T16:03:46;95580.00;;;8.39;55.98
56668;BME280;42542;48.360;10.958;2024-03-23T16:06:46;95583.16;;;8.34;56.12
56668;BME280;42542;48.360;10.958;2024-03-23T16:09:47;95578.66;;;8.35;57.26
56668;BME280;42542;48.360;10.958;2024-03-23T16:12:48;95572.31;;;8.36;57.12
56668;BME280;42542;48.360;10.958;2024-03-23T16:15:59;95572.94;;;8.30;57.39
56668;BME280;42542;48.360;10.958;2024-03-23T16:19:00;95564.13;;;8.29;57.40
56668;BME280;42542;48.360;10.958;2024-03-23T16:22:01;95565.94;;;8.29;57.38
56668;BME280;42542;48.360;10.958;2024-03-23T16:25:03;95560.13;;;8.25;57.69
56668;BME280;42542;48.360;10.958;2024-03-23T16:28:04;95551.63;;;8.13;57.59
56668;BME280;42542;48.360;10.958;2024-03-23T16:31:06;95551.28;;;8.08;57.66
56668;BME280;42542;48.360;10.958;2024-03-23T16:34:07;95553.91;;;8.00;59.16
56668;BME280;42542;48.360;10.958;2024-03-23T16:37:08;95567.22;;;7.92;63.09
56668;BME280;42542;48.360;10.958;2024-03-23T16:40:11;95565.13;;;7.70;63.51
56668;BME280;42542;48.360;10.958;2024-03-23T16:43:13;95568.59;;;7.62;64.85
56668;BME280;42542;48.360;10.958;2024-03-23T16:46:14;95564.03;;;7.47;65.27
56668;BME280;42542;48.360;10.958;2024-03-23T16:49:16;95567.38;;;7.49;66.18
56668;BME280;42542;48.360;10.958;2024-03-23T16:52:17;95576.78;;;7.43;64.47
56668;BME280;42542;48.360;10.958;2024-03-23T16:55:18;95586.94;;;7.39;64.87
56668;BME280;42542;48.360;10.958;2024-03-23T16:58:19;95597.16;;;7.26;62.09